Time;durP1;ratioP1;P1;durP2;ratioP2;P2;SDS_P1;SDS_P2;PMS_P1;PMS_P2;Temp;Humidity;BMP_temperature;BMP_pressure;BME280_temperature;BME280_humidity;BME280_pressure;Samples;Min_cycle;Max_cycle;Signal;HPM_P1;HPM_P2
2022/08/08 00:00:46;;;;;;;4.32;2.40;;;;;;;23.94;33.24;101963.53;5026824;28;97108;-69
2022/08/08 00:03:21;;;;;;;2.70;2.13;;;;;;;23.94;32.31;101966.22;5028962;27;97747;-68
2022/08/08 00:05:53;;;;;;;5.55;2.20;;;;;;;23.89;31.64;101965.69;5030790;27;99312;-68
2022/08/08 00:08:25;;;;;;;4.80;2.40;;;;;;;23.72;31.83;101969.59;5028214;27;99184;-67
2022/08/08 00:10:55;;;;;;;4.55;2.78;;;;;;;24.06;31.83;101957.22;5027371;27;96888;-69
2022/08/08 00:13:28;;;;;;;5.40;2.53;;;;;;;23.89;32.53;101958.47;5027062;27;99069;-69
2022/08/08 00:15:59;;;;;;;5.22;2.60;;;;;;;23.90;32.19;101954.78;5029947;28;100411;-69
2022/08/08 00:18:36;;;;;;;3.83;2.22;;;;;;;23.58;34.30;101958.91;5029874;27;98939;-69
2022/08/08 00:21:04;;;;;;;6.32;2.30;;;;;;;23.84;33.72;101963.31;5028922;27;97088;-69
2022/08/08 00:23:38;;;;;;;3.45;2.47;;;;;;;23.63;34.70;101965.69;5024464;27;96795;-68
2022/08/08 00:26:07;;;;;;;4.10;2.45;;;;;;;23.86;34.21;101966.78;5035198;27;98983;-69
2022/08/08 00:28:40;;;;;;;3.40;2.25;;;;;;;23.87;32.51;101967.63;5026803;27;99032;-68
2022/08/08 00:31:15;;;;;;;5.93;2.30;;;;;;;23.97;31.88;101957.88;5028842;28;97024;-69
2022/08/08 00:33:49;;;;;;;5.20;2.47;;;;;;;23.92;31.61;101954.66;5021105;27;97736;-69
2022/08/08 00:36:25;;;;;;;3.58;2.10;;;;;;;23.67;33.92;101961.84;5026022;28;99541;-68
2022/08/08 00:39:01;;;;;;;6.60;2.65;;;;;;;23.69;34.41;101964.44;5025519;28;98175;-69
2022/08/08 00:41:53;;;;;;;6.75;2.30;;;;;;;23.47;33.53;101975.88;5026184;28;98641;-68
2022/08/08 00:44:46;;;;;;;4.38;2.00;;;;;;;23.77;31.84;101970.13;5027382;27;97134;-68
2022/08/08 00:47:44;;;;;;;6.45;2.30;;;;;;;23.77;31.99;101970.13;5025061;28;99119;-68
2022/08/08 00:50:57;;;;;;;2.50;2.25;;;;;;;23.95;31.75;101970.66;5007064;28;98961;-68
2022/08/08 00:53:42;;;;;;;2.83;1.92;;;;;;;23.81;31.93;101968.94;4985488;28;98320;-69
2022/08/08 00:56:45;;;;;;;3.40;2.50;;;;;;;23.81;32.81;101968.94;4985559;28;97769;-68
2022/08/08 00:59:45;;;;;;;2.92;2.15;;;;;;;23.17;36.28;101970.72;4995888;27;100996;-69
2022/08/08 01:02:37;;;;;;;3.05;2.13;;;;;;;22.98;37.24;101967.56;5027515;27;101037;-69
2022/08/08 01:05:36;;;;;;;3.58;2.28;;;;;;;22.78;37.43;101968.06;4995074;27;96872;-69
2022/08/08 01:08:50;;;;;;;2.78;2.28;;;;;;;22.66;37.61;101967.88;5026478;28;98999;-69
2022/08/08 01:11:47;;;;;;;9.18;2.60;;;;;;;22.40;38.30;101967.88;5018465;27;99512;-69
2022/08/08 01:14:33;;;;;;;;;;;;;;;22.47;38.23;101958.44;5029139;28;100161;-68
2022/08/08 01:17:32;;;;;;;5.93;2.35;;;;;;;22.49;37.78;101959.22;5026492;28;97044;-69
2022/08/08 01:20:28;;;;;;;4.07;2.20;;;;;;;22.28;38.04;101964.19;5028716;28;97231;-69
2022/08/08 01:23:41;;;;;;;2.42;2.20;;;;;;;22.22;38.62;101961.88;5021652;28;98584;-69
2022/08/08 01:26:26;;;;;;;3.13;2.47;;;;;;;22.15;38.71;101971.31;5030990;28;99907;-69
2022/08/08 01:29:26;;;;;;;8.18;2.42;;;;;;;22.23;38.88;101966.31;5026731;28;96911;-69
2022/08/08 01:32:34;;;;;;;5.25;2.47;;;;;;;22.20;38.98;101964.66;5027211;28;97843;-69
2022/08/08 01:35:27;;;;;;;5.38;2.83;;;;;;;22.24;38.67;101957.28;5011074;28;99997;-69
2022/08/08 01:38:29;;;;;;;5.10;2.70;;;;;;;22.04;39.18;101957.69;5030188;27;100197;-71
2022/08/08 01:41:05;;;;;;;6.82;2.38;;;;;;;22.01;39.45;101961.44;5022621;28;98678;-69
2022/08/08 01:43:41;;;;;;;3.23;2.40;;;;;;;22.17;39.16;101964.88;5027063;28;96926;-69
2022/08/08 01:46:26;;;;;;;5.40;2.22;;;;;;;22.05;39.36;101956.75;5029053;27;99101;-69
2022/08/08 01:49:01;;;;;;;6.30;2.75;;;;;;;22.09;39.01;101955.56;5030596;28;99135;-69
2022/08/08 01:51:43;;;;;;;4.88;2.63;;;;;;;21.77;39.56;101950.41;5031362;27;97499;-69
2022/08/08 01:54:21;;;;;;;4.68;2.15;;;;;;;22.09;38.97;101952.88;5031882;27;96818;-69
2022/08/08 01:57:04;;;;;;;2.78;2.17;;;;;;;22.26;38.99;101944.56;5034691;27;98207;-69
2022/08/08 01:59:46;;;;;;;4.43;2.53;;;;;;;22.41;37.89;101943.56;5028370;28;98751;-70
2022/08/08 02:02:21;;;;;;;4.32;2.80;;;;;;;22.33;37.99;101940.50;5028843;27;97612;-69
2022/08/08 02:04:57;;;;;;;3.10;2.38;;;;;;;22.10;38.22;101943.84;5028514;28;97129;-70
2022/08/08 02:07:31;;;;;;;8.13;3.00;;;;;;;22.07;37.92;101942.19;5029100;28;98548;-69
2022/08/08 02:10:15;;;;;;;5.07;2.05;;;;;;;22.06;38.62;101940.47;5029600;28;98814;-69
2022/08/08 02:12:50;;;;;;;3.35;2.13;;;;;;;21.96;39.63;101939.34;5031639;28;97145;-69
2022/08/08 02:15:29;;;;;;;3.38;2.45;;;;;;;21.75;39.95;101941.53;5029030;27;97269;-68
2022/08/08 02:18:03;;;;;;;8.02;2.85;;;;;;;21.80;40.25;101942.09;5030611;28;99274;-69
2022/08/08 02:20:37;;;;;;;4.55;2.33;;;;;;;21.77;40.01;101939.63;5025606;28;99281;-69
2022/08/08 02:23:19;;;;;;;5.03;2.70;;;;;;;21.85;40.17;101948.09;5029574;27;99122;-69
2022/08/08 02:25:51;;;;;;;7.25;2.60;;;;;;;21.63;40.62;101941.47;5032102;28;98378;-69
2022/08/08 02:28:24;;;;;;;5.70;2.97;;;;;;;21.57;41.13;101949.91;5026485;27;98830;-69
2022/08/08 02:31:01;;;;;;;6.85;2.67;;;;;;;21.61;41.57;101952.31;5029945;27;98781;-69
2022/08/08 02:33:44;;;;;;;5.18;2.85;;;;;;;21.38;41.80;101947.50;5030283;27;97897;-68
2022/08/08 02:36:41;;;;;;;7.07;2.90;;;;;;;21.28;41.90;101957.06;5030394;28;96902;-69
2022/08/08 02:39:45;;;;;;;4.93;2.80;;;;;;;21.28;42.15;101954.38;5028715;27;99060;-69
2022/08/08 02:42:46;;;;;;;7.72;2.78;;;;;;;21.29;42.30;101953.44;5028428;28;101957;-69
2022/08/08 02:45:46;;;;;;;5.30;2.65;;;;;;;21.25;42.09;101944.72;5029794;28;99336;-70
2022/08/08 02:48:55;;;;;;;8.88;2.83;;;;;;;21.25;41.94;101947.41;5015682;28;96958;-69
2022/08/08 02:51:50;;;;;;;6.22;2.83;;;;;;;21.07;42.92;101952.00;5031348;28;99067;-69
2022/08/08 02:54:37;;;;;;;4.72;2.65;;;;;;;21.00;43.14;101957.88;5028746;28;98803;-68
2022/08/08 02:57:33;;;;;;;6.30;2.65;;;;;;;20.98;43.22;101952.59;5026468;28;97120;-69
2022/08/08 03:00:32;;;;;;;4.53;2.63;;;;;;;21.03;42.90;101955.84;5026064;28;96835;-69
2022/08/08 03:03:47;;;;;;;5.97;2.80;;;;;;;21.05;43.20;101959.31;5031845;27;98783;-68
2022/08/08 03:06:35;;;;;;;3.78;2.63;;;;;;;20.99;42.54;101965.06;5029493;28;99228;-69
2022/08/08 03:09:47;;;;;;;4.82;2.28;;;;;;;20.93;42.87;101961.88;5027926;28;96821;-68
2022/08/08 03:12:56;;;;;;;8.57;2.55;;;;;;;20.94;43.28;101971.66;5029194;28;98407;-68
2022/08/08 03:15:51;;;;;;;6.75;2.58;;;;;;;20.81;43.58;101959.91;5020819;27;101937;-68
2022/08/08 03:18:23;;;;;;;10.00;3.10;;;;;;;21.03;42.92;101969.28;5029278;28;98911;-69
2022/08/08 03:20:51;;;;;;;5.78;3.22;;;;;;;21.03;42.79;101969.28;5030296;28;96718;-68
2022/08/08 03:23:21;;;;;;;10.32;2.90;;;;;;;20.82;42.78;101970.56;5030645;28;96883;-69
2022/08/08 03:25:49;;;;;;;10.23;3.28;;;;;;;20.84;43.05;101973.16;5031864;28;99760;-69
2022/08/08 03:28:21;;;;;;;8.85;2.92;;;;;;;20.95;43.47;101971.56;5028174;28;101779;-69
2022/08/08 03:30:47;;;;;;;6.95;2.80;;;;;;;21.01;43.40;101968.50;5027514;27;97204;-67
2022/08/08 03:33:19;;;;;;;5.95;3.00;;;;;;;20.90;43.94;101970.09;5033443;27;98253;-68
2022/08/08 03:35:47;;;;;;;8.00;3.08;;;;;;;20.97;43.74;101971.47;5025421;28;99446;-69
2022/08/08 03:38:14;;;;;;;7.88;3.55;;;;;;;21.09;43.34;101963.53;5026087;28;99780;-68
2022/08/08 03:40:49;;;;;;;7.55;2.90;;;;;;;21.05;43.17;101975.44;5030093;28;96894;-70
2022/08/08 03:43:15;;;;;;;11.15;3.13;;;;;;;20.90;43.49;101972.78;5028849;28;97654;-69
2022/08/08 03:45:42;;;;;;;12.07;3.28;;;;;;;20.92;43.05;101970.91;5027224;28;98988;-70
2022/08/08 03:48:10;;;;;;;8.40;3.13;;;;;;;21.03;42.80;101977.34;5028007;28;99330;-69
2022/08/08 03:50:42;;;;;;;8.52;3.75;;;;;;;21.01;43.25;101976.56;5023907;27;96789;-69
2022/08/08 03:53:11;;;;;;;6.50;3.33;;;;;;;20.81;43.76;101970.63;5028263;28;97256;-69
2022/08/08 03:55:38;;;;;;;11.38;3.13;;;;;;;20.83;43.94;101977.66;5030030;27;97724;-69
2022/08/08 03:58:07;;;;;;;5.20;3.22;;;;;;;20.81;43.47;101982.25;5029977;28;99008;-70
2022/08/08 04:00:33;;;;;;;5.32;3.17;;;;;;;20.84;43.17;101982.09;5029961;27;97346;-66
2022/08/08 04:03:01;;;;;;;7.15;3.30;;;;;;;20.91;43.52;101986.16;5030623;28;96813;-65
2022/08/08 04:05:29;;;;;;;8.50;3.65;;;;;;;20.80;44.15;101980.56;5029382;28;98944;-65
2022/08/08 04:07:57;;;;;;;8.52;3.60;;;;;;;20.90;43.88;101986.22;5027124;27;99076;-65
2022/08/08 04:10:23;;;;;;;4.78;2.85;;;;;;;20.95;43.58;101993.06;5025933;27;97096;-65
2022/08/08 04:12:50;;;;;;;12.57;3.65;;;;;;;20.85;43.78;101988.31;5028882;27;96944;-64
2022/08/08 04:15:17;;;;;;;8.07;3.08;;;;;;;20.88;43.66;101996.19;5032070;27;99002;-66
2022/08/08 04:17:44;;;;;;;5.70;3.35;;;;;;;20.98;43.48;101995.56;5028412;27;98927;-66
2022/08/08 04:20:10;;;;;;;5.40;3.10;;;;;;;20.87;43.63;101998.00;5030520;27;97559;-64
2022/08/08 04:22:37;;;;;;;8.07;3.40;;;;;;;20.95;43.46;102003.81;5028574;27;96814;-65
2022/08/08 04:25:05;;;;;;;7.82;3.40;;;;;;;20.89;43.95;102003.28;5028129;27;99288;-64
2022/08/08 04:27:32;;;;;;;8.98;3.67;;;;;;;20.68;44.30;102003.59;5029214;28;98882;-64
2022/08/08 04:29:59;;;;;;;8.93;3.50;;;;;;;20.74;44.41;102007.78;5028218;28;98542;-65
2022/08/08 04:32:27;;;;;;;13.35;4.05;;;;;;;20.78;44.55;102001.25;5030171;27;96940;-65
2022/08/08 04:34:53;;;;;;;20.10;4.57;;;;;;;20.76;44.45;102003.16;5030935;27;99876;-66
2022/08/08 04:37:19;;;;;;;12.35;4.45;;;;;;;21.02;44.30;102005.16;5029037;28;98749;-65
2022/08/08 04:39:55;;;;;;;14.63;4.82;;;;;;;20.91;44.25;102009.47;5027687;28;96797;-65
2022/08/08 04:42:21;;;;;;;9.30;3.47;;;;;;;20.94;43.93;102011.94;5028866;27;97004;-65
2022/08/08 04:44:48;;;;;;;13.60;3.85;;;;;;;20.97;43.90;102020.72;5027574;27;98820;-65
2022/08/08 04:47:15;;;;;;;18.23;3.47;;;;;;;21.08;44.01;102023.63;5026177;28;98953;-66
2022/08/08 04:49:43;;;;;;;10.57;3.88;;;;;;;21.28;43.52;102026.97;5028635;27;96791;-65
2022/08/08 04:52:10;;;;;;;13.90;4.57;;;;;;;21.38;43.18;102025.47;5030050;27;96842;-67
2022/08/08 04:54:36;;;;;;;10.80;3.22;;;;;;;21.61;42.50;102021.38;5029492;27;97857;-66
2022/08/08 04:57:02;;;;;;;17.15;4.32;;;;;;;21.77;42.51;102019.47;5028554;27;97800;-65
2022/08/08 04:59:29;;;;;;;16.60;4.53;;;;;;;21.76;42.91;102029.38;5028677;27;97404;-65
2022/08/08 05:01:55;;;;;;;11.90;4.13;;;;;;;21.94;42.11;102023.78;5028245;27;97043;-65
2022/08/08 05:04:21;;;;;;;17.55;3.70;;;;;;;22.17;41.39;102023.25;5025835;28;99270;-65
2022/08/08 05:06:49;;;;;;;13.40;3.95;;;;;;;22.33;41.16;102021.28;5031947;27;99007;-66
2022/08/08 05:09:16;;;;;;;16.40;4.10;;;;;;;22.39;41.39;102020.88;5037703;27;97414;-66
2022/08/08 05:11:42;;;;;;;11.05;3.90;;;;;;;22.50;40.79;102025.59;5031144;28;96940;-66
2022/08/08 05:14:10;;;;;;;11.30;3.60;;;;;;;22.58;40.69;102024.09;5030756;28;99799;-70
2022/08/08 05:16:36;;;;;;;15.13;3.55;;;;;;;22.72;40.74;102019.63;5030713;28;98833;-70
2022/08/08 05:19:03;;;;;;;11.65;3.75;;;;;;;22.94;40.15;102014.56;5033383;27;96798;-68
2022/08/08 05:21:29;;;;;;;21.83;4.50;;;;;;;23.01;40.27;102016.75;5030679;27;97066;-70
2022/08/08 05:23:57;;;;;;;21.73;4.25;;;;;;;23.50;38.93;102021.50;5029059;28;99059;-70
2022/08/08 05:26:23;;;;;;;20.88;4.18;;;;;;;23.56;38.64;102028.31;5028588;27;97872;-70
2022/08/08 05:28:49;;;;;;;23.08;4.22;;;;;;;23.41;38.91;102019.44;5028417;27;98598;-69
2022/08/08 05:31:16;;;;;;;19.50;3.70;;;;;;;23.33;38.70;102024.47;5030160;27;97948;-70
2022/08/08 05:33:42;;;;;;;13.45;3.95;;;;;;;24.01;37.53;102030.47;5029573;27;99087;-70
2022/08/08 05:36:10;;;;;;;15.15;3.30;;;;;;;23.74;36.78;102029.72;5031480;27;98755;-70
2022/08/08 05:38:42;;;;;;;16.08;3.75;;;;;;;24.55;35.88;102019.31;5030292;28;97698;-70
2022/08/08 05:41:12;;;;;;;18.50;3.53;;;;;;;25.32;34.18;102026.13;5028536;27;97491;-70
2022/08/08 05:43:41;;;;;;;9.13;3.30;;;;;;;25.18;31.72;102026.31;5027102;27;99315;-70
2022/08/08 05:46:08;;;;;;;9.68;2.97;;;;;;;25.07;31.30;102021.72;5033337;28;99269;-70
2022/08/08 05:48:34;;;;;;;9.27;2.90;;;;;;;25.04;31.76;102030.06;5031464;27;96770;-70
2022/08/08 05:51:00;;;;;;;11.23;3.15;;;;;;;24.99;32.34;102029.56;5031945;27;98725;-70
2022/08/08 05:53:27;;;;;;;16.67;2.75;;;;;;;24.77;32.70;102045.63;5027496;27;99606;-70
2022/08/08 05:55:55;;;;;;;9.00;3.28;;;;;;;24.87;31.66;102034.03;5027412;28;98884;-69
2022/08/08 05:58:27;;;;;;;9.95;2.97;;;;;;;24.81;31.50;102039.88;5031352;27;96927;-69
2022/08/08 06:00:55;;;;;;;7.55;3.40;;;;;;;25.20;30.78;102036.03;5030315;28;97117;-69
2022/08/08 06:03:22;;;;;;;6.68;2.58;;;;;;;24.67;31.54;102045.47;5032408;27;99185;-69
2022/08/08 06:05:52;;;;;;;7.40;3.00;;;;;;;25.27;31.03;102039.13;5031854;27;98974;-69
2022/08/08 06:08:23;;;;;;;7.15;2.25;;;;;;;25.25;31.18;102036.53;5033164;27;97253;-70
2022/08/08 06:10:50;;;;;;;9.52;3.00;;;;;;;25.36;30.85;102043.81;5033180;27;97164;-70
2022/08/08 06:13:18;;;;;;;5.93;3.25;;;;;;;25.43;30.67;102045.06;5029431;27;99281;-70
2022/08/08 06:15:48;;;;;;;7.40;2.80;;;;;;;25.57;30.19;102047.59;5032275;27;99244;-69
2022/08/08 06:18:15;;;;;;;11.13;2.80;;;;;;;25.62;29.71;102041.81;5025514;27;96869;-70
2022/08/08 06:20:42;;;;;;;8.20;3.13;;;;;;;25.99;29.86;102050.63;5029369;28;97339;-70
2022/08/08 06:23:08;;;;;;;7.13;2.70;;;;;;;25.75;29.55;102048.00;5033508;27;98204;-69
2022/08/08 06:25:36;;;;;;;5.18;2.90;;;;;;;25.74;29.96;102052.53;5036433;27;99307;-68
2022/08/08 06:28:11;;;;;;;8.68;3.03;;;;;;;25.90;29.48;102054.03;5030829;27;97386;-69
2022/08/08 06:30:39;;;;;;;10.45;2.83;;;;;;;26.07;28.91;102054.41;5029554;28;96796;-68
2022/08/08 06:33:10;;;;;;;12.27;3.05;;;;;;;26.01;29.22;102046.78;5031248;27;99026;-69
2022/08/08 06:35:40;;;;;;;6.97;2.85;;;;;;;26.31;29.18;102042.63;5031966;27;98902;-69
2022/08/08 06:38:06;;;;;;;9.70;2.60;;;;;;;26.46;29.36;102053.06;5031389;28;97217;-68
2022/08/08 06:40:35;;;;;;;9.55;3.05;;;;;;;26.46;29.50;102050.34;5031951;28;96873;-69
2022/08/08 06:43:05;;;;;;;7.13;2.78;;;;;;;26.69;29.10;102044.91;5027642;28;99110;-70
2022/08/08 06:45:35;;;;;;;8.35;2.97;;;;;;;26.85;28.22;102048.91;5026868;28;98880;-66
2022/08/08 06:48:01;;;;;;;12.07;3.13;;;;;;;26.81;28.24;102052.00;5029650;27;96873;-66
2022/08/08 06:50:31;;;;;;;14.95;3.38;;;;;;;27.32;27.20;102052.19;5029741;27;97357;-66
2022/08/08 06:52:59;;;;;;;9.98;3.30;;;;;;;27.34;27.06;102055.66;5030343;27;98886;-67
2022/08/08 06:55:26;;;;;;;12.48;3.63;;;;;;;27.26;27.26;102053.56;5032965;27;97820;-67
2022/08/08 06:57:53;;;;;;;12.38;2.85;;;;;;;27.20;27.54;102058.66;5029855;27;96763;-67
2022/08/08 07:00:19;;;;;;;10.85;3.38;;;;;;;27.18;27.30;102055.22;5030320;27;96962;-66
2022/08/08 07:02:52;;;;;;;13.88;3.15;;;;;;;27.35;27.14;102058.22;5030590;27;99088;-66
2022/08/08 07:05:23;;;;;;;12.88;3.40;;;;;;;27.28;27.17;102057.03;5030015;27;98939;-67
2022/08/08 07:08:00;;;;;;;14.13;3.20;;;;;;;27.65;26.98;102064.75;5026345;27;96837;-67
2022/08/08 07:10:33;;;;;;;11.35;3.53;;;;;;;27.69;26.55;102063.50;5029869;27;97459;-67
2022/08/08 07:13:08;;;;;;;16.33;4.00;;;;;;;27.63;26.46;102059.47;5029939;28;98279;-66
2022/08/08 07:15:38;;;;;;;11.65;3.67;;;;;;;27.98;26.06;102060.94;5028450;28;99139;-66
2022/08/08 07:18:06;;;;;;;15.95;2.95;;;;;;;27.95;26.32;102067.50;5029417;27;96827;-66
2022/08/08 07:20:36;;;;;;;14.32;3.53;;;;;;;28.25;25.91;102065.78;5029270;27;97316;-65
2022/08/08 07:23:11;;;;;;;9.27;3.25;;;;;;;28.46;25.27;102067.47;5030369;27;100155;-66
2022/08/08 07:25:39;;;;;;;15.13;3.65;;;;;;;28.95;24.40;102070.31;5027062;27;100713;-66
2022/08/08 07:28:10;;;;;;;9.27;2.53;;;;;;;29.03;23.83;102065.84;5026159;27;98426;-66
2022/08/08 07:30:37;;;;;;;15.02;3.83;;;;;;;29.62;23.16;102062.97;5031364;27;97501;-66
2022/08/08 07:33:04;;;;;;;10.10;3.20;;;;;;;29.35;23.27;102070.19;5024947;27;99714;-66
2022/08/08 07:35:30;;;;;;;25.77;14.70;;;;;;;29.66;23.07;102067.16;5025328;27;98797;-67
2022/08/08 07:37:58;;;;;;;12.80;3.30;;;;;;;29.54;23.16;102067.44;5027550;27;97229;-66
2022/08/08 07:40:27;;;;;;;8.52;2.97;;;;;;;29.46;22.70;102070.91;5028381;28;96816;-67
2022/08/08 07:42:54;;;;;;;15.63;4.22;;;;;;;29.02;23.39;102069.59;5025972;28;99065;-67
2022/08/08 07:45:21;;;;;;;12.80;3.90;;;;;;;29.22;23.40;102073.16;5029228;28;98128;-67
2022/08/08 07:47:48;;;;;;;8.43;3.45;;;;;;;29.13;22.83;102079.47;5022466;28;97176;-68
2022/08/08 07:50:15;;;;;;;6.82;2.70;;;;;;;29.44;22.75;102070.19;5029248;28;97086;-66
2022/08/08 07:52:44;;;;;;;5.97;3.40;;;;;;;29.19;23.14;102077.06;5024470;28;98989;-66
2022/08/08 07:55:17;;;;;;;4.55;2.45;;;;;;;29.14;23.28;102078.50;5028429;27;99007;-66
2022/08/08 07:57:51;;;;;;;11.63;2.83;;;;;;;29.37;23.16;102077.22;5028318;27;97640;-66
2022/08/08 08:00:18;;;;;;;5.10;2.67;;;;;;;28.52;23.29;102087.78;5031275;27;96824;-66
2022/08/08 08:02:48;;;;;;;8.95;5.68;;;;;;;28.54;23.29;102091.25;5015799;27;99481;-65
2022/08/08 08:05:20;;;;;;;8.00;2.60;;;;;;;28.96;23.25;102088.34;5026221;27;100088;-66
2022/08/08 08:07:49;;;;;;;6.88;2.60;;;;;;;29.31;22.74;102092.22;5027417;27;97249;-68
2022/08/08 08:10:18;;;;;;;7.53;2.50;;;;;;;29.24;22.58;102090.22;5030055;27;97313;-66
2022/08/08 08:12:52;;;;;;;5.45;3.80;;;;;;;29.43;22.53;102090.25;5028957;27;99972;-66
2022/08/08 08:15:24;;;;;;;8.25;3.03;;;;;;;29.27;22.76;102096.25;5030535;27;99618;-67
2022/08/08 08:17:56;;;;;;;3.78;2.20;;;;;;;29.45;22.21;102082.81;5026955;27;97205;-67
2022/08/08 08:20:27;;;;;;;6.32;2.30;;;;;;;29.31;22.98;102083.19;5027624;27;96945;-67
2022/08/08 08:22:53;;;;;;;5.15;2.25;;;;;;;29.55;22.84;102091.81;5029234;27;98045;-66
2022/08/08 08:25:20;;;;;;;3.75;2.10;;;;;;;29.79;22.39;102091.34;5029607;27;98813;-67
2022/08/08 08:27:48;;;;;;;5.72;1.90;;;;;;;29.66;21.88;102083.50;5021249;27;96799;-67
2022/08/08 08:30:14;;;;;;;4.00;2.00;;;;;;;29.72;21.94;102084.78;5028224;27;97975;-69
2022/08/08 08:32:41;;;;;;;3.38;2.25;;;;;;;29.82;22.18;102087.47;5023731;28;99972;-67
2022/08/08 08:35:09;;;;;;;5.82;2.28;;;;;;;29.81;21.96;102089.31;5028184;27;98779;-67
2022/08/08 08:37:35;;;;;;;7.75;3.58;;;;;;;30.04;21.99;102090.75;5026332;27;97254;-68
2022/08/08 08:40:02;;;;;;;5.72;2.90;;;;;;;30.14;21.91;102092.53;5027557;27;97075;-67
2022/08/08 08:42:30;;;;;;;4.30;2.53;;;;;;;30.06;22.33;102090.59;5029364;27;98277;-66
2022/08/08 08:44:58;;;;;;;6.32;2.30;;;;;;;30.11;22.37;102088.28;5028698;28;98726;-66
2022/08/08 08:47:26;;;;;;;3.47;2.40;;;;;;;30.48;21.54;102097.28;5029280;28;96720;-66
2022/08/08 08:49:52;;;;;;;4.50;2.03;;;;;;;30.43;21.50;102101.47;5030095;27;97386;-66
2022/08/08 08:52:21;;;;;;;4.80;1.77;;;;;;;30.14;21.07;102089.81;5031481;27;99358;-66
2022/08/08 08:54:48;;;;;;;3.42;1.80;;;;;;;30.22;21.15;102092.66;5029125;27;99285;-66
2022/08/08 08:57:15;;;;;;;3.30;2.10;;;;;;;30.24;21.21;102085.22;5029018;28;97209;-66
2022/08/08 08:59:44;;;;;;;3.35;1.73;;;;;;;30.38;20.73;102087.44;5029203;27;97604;-66
2022/08/08 09:02:19;;;;;;;6.72;1.70;;;;;;;30.21;21.03;102093.66;5031346;27;98970;-66
2022/08/08 09:04:48;;;;;;;4.03;1.63;;;;;;;29.96;21.22;102087.03;5026323;27;98152;-66
2022/08/08 09:07:18;;;;;;;2.55;1.73;;;;;;;30.11;21.33;102093.72;5028581;28;96975;-67
2022/08/08 09:09:48;;;;;;;4.40;1.25;;;;;;;30.37;20.33;102088.44;5029668;27;97557;-66
2022/08/08 09:12:17;;;;;;;3.72;1.60;;;;;;;30.26;20.60;102088.66;5022975;28;99091;-67
2022/08/08 09:14:45;;;;;;;3.33;1.55;;;;;;;30.53;20.27;102090.53;5029955;27;98133;-66
2022/08/08 09:17:13;;;;;;;2.85;1.73;;;;;;;30.62;20.00;102084.19;5030039;27;97247;-68
2022/08/08 09:19:40;;;;;;;2.05;1.60;;;;;;;30.45;20.25;102091.28;5031962;27;97954;-66
2022/08/08 09:22:08;;;;;;;6.03;1.90;;;;;;;30.38;20.67;102088.31;5028427;27;98434;-67
2022/08/08 09:24:35;;;;;;;3.72;1.52;;;;;;;30.64;20.05;102082.16;5029319;28;99109;-66
2022/08/08 09:27:07;;;;;;;3.42;1.40;;;;;;;30.28;20.21;102082.03;5029641;28;96711;-68
2022/08/08 09:29:46;;;;;;;4.22;1.60;;;;;;;30.30;20.89;102081.88;5031217;27;97302;-67
2022/08/08 09:32:17;;;;;;;5.20;2.17;;;;;;;29.93;20.69;102071.00;5030237;27;98985;-66
2022/08/08 09:34:49;;;;;;;2.63;1.60;;;;;;;30.12;20.63;102076.38;5030282;27;98778;-66
2022/08/08 09:37:18;;;;;;;7.32;1.60;;;;;;;30.15;20.05;102072.47;5027847;27;96973;-67
2022/08/08 09:39:52;;;;;;;3.60;1.40;;;;;;;30.15;20.41;102075.19;5026793;28;96891;-66
2022/08/08 09:42:23;;;;;;;3.55;1.70;;;;;;;30.71;19.85;102066.91;5029841;28;99014;-68
2022/08/08 09:45:05;;;;;;;5.97;1.90;;;;;;;30.64;20.00;102077.56;5025282;27;98940;-66
2022/08/08 09:47:34;;;;;;;4.70;2.10;;;;;;;31.14;19.75;102079.81;5028682;28;96858;-66
2022/08/08 09:50:04;;;;;;;5.57;1.52;;;;;;;31.36;19.61;102075.75;5029197;27;97491;-66
2022/08/08 09:52:32;;;;;;;4.60;1.65;;;;;;;31.03;19.40;102078.16;5028988;27;100910;-66
2022/08/08 09:54:58;;;;;;;7.60;1.70;;;;;;;30.72;19.95;102072.19;5033258;27;98791;-67
2022/08/08 09:57:33;;;;;;;2.53;1.65;;;;;;;30.97;19.38;102070.59;5029880;28;96733;-66
2022/08/08 10:00:00;;;;;;;3.05;1.77;;;;;;;31.13;19.87;102062.56;5032579;27;97429;-67
2022/08/08 10:02:35;;;;;;;2.03;1.42;;;;;;;31.14;19.00;102064.28;5032262;27;99039;-66
2022/08/08 10:05:11;;;;;;;2.35;1.60;;;;;;;30.90;19.22;102066.75;5032713;27;99237;-66
2022/08/08 10:07:45;;;;;;;2.92;1.50;;;;;;;30.72;19.63;102057.72;5030910;27;97750;-66
2022/08/08 10:10:11;;;;;;;4.18;1.75;;;;;;;30.85;19.33;102061.75;5032878;28;96942;-66
2022/08/08 10:12:40;;;;;;;2.00;1.50;;;;;;;31.17;19.41;102052.22;5032372;28;99035;-66
2022/08/08 10:15:08;;;;;;;4.35;2.00;;;;;;;31.17;19.60;102046.75;5033437;27;98804;-67
2022/08/08 10:17:45;;;;;;;6.80;2.03;;;;;;;31.14;19.01;102061.56;5030940;27;96744;-65
2022/08/08 10:20:15;;;;;;;5.82;1.70;;;;;;;30.96;19.88;102062.56;5033289;27;97095;-66
2022/08/08 10:22:49;;;;;;;5.00;1.80;;;;;;;30.85;19.48;102058.19;5032031;28;98932;-66
2022/08/08 10:25:20;;;;;;;3.33;1.60;;;;;;;31.10;19.60;102048.41;5032855;28;97797;-67
2022/08/08 10:27:50;;;;;;;3.72;1.50;;;;;;;31.12;19.40;102055.41;5031481;27;97251;-67
2022/08/08 10:30:17;;;;;;;3.78;1.67;;;;;;;31.27;19.53;102053.84;5032370;28;97451;-67
2022/08/08 10:32:50;;;;;;;3.75;2.10;;;;;;;31.04;19.52;102047.13;5031898;27;99857;-70
2022/08/08 10:35:19;;;;;;;4.72;1.70;;;;;;;31.57;19.40;102048.97;5032254;27;99014;-65
2022/08/08 10:37:52;;;;;;;3.60;2.20;;;;;;;30.93;19.75;102039.16;5029689;28;97189;-67
2022/08/08 10:40:19;;;;;;;3.92;1.77;;;;;;;31.08;19.91;102044.97;5033924;27;96870;-66
2022/08/08 10:42:48;;;;;;;2.40;1.90;;;;;;;31.35;19.48;102044.84;5032418;27;99668;-66
2022/08/08 10:45:15;;;;;;;3.90;1.40;;;;;;;31.24;19.87;102045.94;5031695;27;98020;-67
2022/08/08 10:47:42;;;;;;;7.18;4.35;;;;;;;30.62;20.18;102043.25;5031910;27;96725;-66
2022/08/08 10:50:11;;;;;;;7.32;3.00;;;;;;;31.22;19.59;102047.13;5033755;27;97559;-67
2022/08/08 10:52:40;;;;;;;3.88;2.15;;;;;;;31.26;19.64;102046.66;5031369;27;99306;-67
2022/08/08 10:55:09;;;;;;;4.30;2.75;;;;;;;30.94;20.11;102054.50;5032204;27;99340;-67
2022/08/08 10:57:37;;;;;;;8.63;2.28;;;;;;;31.12;19.74;102043.63;5030845;27;97475;-69
2022/08/08 11:00:06;;;;;;;1.73;1.58;;;;;;;30.86;19.76;102044.38;5032321;28;97260;-66
2022/08/08 11:02:34;;;;;;;9.02;2.13;;;;;;;30.59;19.77;102046.31;5025465;27;97836;-65
2022/08/08 11:05:01;;;;;;;4.30;1.98;;;;;;;30.80;19.45;102035.94;5032457;27;99849;-70
2022/08/08 11:07:32;;;;;;;5.97;2.22;;;;;;;30.70;20.17;102040.63;5031462;27;97060;-67
2022/08/08 11:10:01;;;;;;;4.25;3.22;;;;;;;29.99;20.67;102041.28;5032345;27;97091;-66
2022/08/08 11:12:27;;;;;;;1.80;1.50;;;;;;;30.14;20.31;102038.03;5033544;27;99228;-66
2022/08/08 11:14:56;;;;;;;4.13;2.10;;;;;;;30.22;20.19;102039.00;5029850;28;97523;-67
2022/08/08 11:17:25;;;;;;;6.82;2.50;;;;;;;30.59;19.97;102038.13;5033279;27;96822;-67
2022/08/08 11:19:53;;;;;;;3.15;1.88;;;;;;;30.56;20.02;102035.69;5031628;28;96827;-65
2022/08/08 11:22:24;;;;;;;2.90;1.70;;;;;;;30.82;20.42;102034.78;5032187;27;98969;-66
2022/08/08 11:24:54;;;;;;;2.80;1.67;;;;;;;31.14;19.36;102036.13;5029615;28;98806;-67
2022/08/08 11:27:25;;;;;;;3.47;2.17;;;;;;;30.92;19.55;102036.59;5031068;28;96787;-66
2022/08/08 11:29:57;;;;;;;4.07;2.00;;;;;;;30.53;20.00;102045.03;5030902;27;97460;-66
2022/08/08 11:32:26;;;;;;;2.33;1.70;;;;;;;30.51;19.85;102036.16;5031482;28;99192;-68
2022/08/08 11:34:55;;;;;;;1.85;1.60;;;;;;;30.92;19.57;102025.69;5030522;28;99275;-67
2022/08/08 11:37:23;;;;;;;2.55;1.45;;;;;;;31.05;19.16;102027.00;5030104;28;98119;-66
2022/08/08 11:39:51;;;;;;;5.28;1.80;;;;;;;31.10;18.82;102026.56;5028340;27;96836;-67
2022/08/08 11:42:19;;;;;;;4.30;1.65;;;;;;;31.45;19.14;102028.34;5031261;27;98251;-67
2022/08/08 11:44:46;;;;;;;4.68;1.95;;;;;;;31.32;19.34;102028.78;5031335;27;98271;-66
2022/08/08 11:47:13;;;;;;;4.55;1.55;;;;;;;31.08;19.64;102026.72;5032556;27;96963;-66
2022/08/08 11:49:41;;;;;;;2.85;1.67;;;;;;;31.32;19.20;102020.56;5027027;27;97626;-67
2022/08/08 11:52:08;;;;;;;5.05;1.73;;;;;;;31.37;19.03;102020.13;5031951;27;101201;-67